Fair Seas — V7PD2 — position and weather

sailwx.info

Track history (hours):
 
Tides and Currents Weather Stations Pressure Air Temp Water Temp Dewpoint Dewpoint Depression Visibility Wind Speed Wind Dir Waves Ship Positions

Fair Seas

Last reported at 2016-May-20 14:33 UTC. Time now 2016-Jun-01 07:28 UTC.
Position N 35°23' E 015°02'.
Warning: this ship's position is 11 days out of date.

Length 250 m; draft 13.6 m.

Type: Tanker. MMSI: 538003211.

Date/timePositionNaut miles runAvg speedWind from/ knotsBaromVisibWave heightAir tempDewpointWater temp
2016-May-20 14:33N 35°23' E 015°02'2611.7
2016-May-20 12:19N 35°30' E 014°31'912.1
2016-May-20 11:33N 35°35' E 014°22'1312.3
2016-May-20 10:32N 35°42' E 014°09'2512.5
2016-May-20 08:33N 35°57' E 013°45'1412.4
2016-May-20 07:24N 36°06' E 013°30'3712.4
2016-May-20 04:27N 36°28' E 012°54'1313.2
2016-May-20 03:30N 36°35' E 012°42'1313.4
2016-May-20 02:33N 36°43' E 012°29'55012.4
2016-May-18 06:16N 36°55' E 001°01'7911.6
2016-May-17 23:28N 36°38' W 000°35'1111.9
2016-May-17 22:33N 36°36' W 000°48'2411.9
2016-May-17 20:33N 36°31' W 001°17'1212.3
2016-May-17 19:33N 36°28' W 001°32'1712.5
2016-May-17 18:13N 36°25' W 001°52'812.4
2016-May-17 17:33N 36°23' W 002°02'1511.7
2016-May-17 16:15N 36°21' W 002°21'14212.2
2016-May-17 04:33N 36°01' W 005°15'11412.3
2016-May-16 19:21N 36°06' W 007°35'1012.5
2016-May-16 18:33N 36°08' W 007°47'1312.7
2016-May-16 17:33N 36°12' W 008°02'1312.7
2016-May-16 16:32N 36°15' W 008°18'1212.5
2016-May-16 15:33N 36°19' W 008°32'4112.3
2016-May-16 12:11N 36°32' W 009°21'812.1
2016-May-16 11:33N 36°37' W 009°29'2512.4
2016-May-16 09:30N 36°60' W 009°42'1212.7
2016-May-16 08:33N 37°11' W 009°46'1512.5
2016-May-16 07:22N 37°26' W 009°50'1012.3
2016-May-16 06:33N 37°36' W 009°53'1212.2
2016-May-16 05:32N 37°48' W 009°56'1412.2
2016-May-16 04:22N 38°02' W 010°00'1012.5
2016-May-16 03:32N 38°12' W 010°03'1412.7
2016-May-16 02:27N 38°25' W 010°07'1212.6
2016-May-16 01:29N 38°37' W 010°11'  
2016-May-13 20:22N 49°02' W 005°25'7512.6
2016-May-13 14:28N 49°43' W 003°49'1112.3
2016-May-13 13:33N 49°48' W 003°34'1211.9
2016-May-13 12:33N 49°54' W 003°19'1211.5
2016-May-13 11:33N 49°58' W 003°02'1211.6
2016-May-13 10:32N 50°01' W 002°44'9613.7
2016-May-13 03:33N 50°26' W 000°19'1211.8
2016-May-13 02:33N 50°30' W 000°02'1110.9
2016-May-13 01:33N 50°32' E 000°15'1110.8
2016-May-13 00:33N 50°35' E 000°31'2512.3
2016-May-12 22:33N 50°48' E 001°05'1313.6
2016-May-12 21:34N 50°57' E 001°21'1312.9
2016-May-12 20:33N 51°06' E 001°35'1211.6
2016-May-12 19:33N 51°15' E 001°47'1110.8
2016-May-12 18:33N 51°25' E 001°55'1110.6
2016-May-12 17:33N 51°33' E 002°06'1110.9
2016-May-12 16:33N 51°41' E 002°18'1211.6
2016-May-12 15:33N 51°49' E 002°30'1312.8
2016-May-12 14:33N 51°59' E 002°43'1413.5
2016-May-12 13:33N 52°10' E 002°57'1413.8
2016-May-12 12:33N 52°21' E 003°10'1512.2
2016-May-12 11:18N 52°28' E 003°33'1012.6
2016-May-12 10:31N 52°30' E 003°49'1111.7
2016-May-12 09:33N 52°30' E 004°07'1111.1
2016-May-12 08:33N 52°29' E 004°25'7 7.1
2016-May-12 07:34N 52°28' E 004°37'1 1.1
2016-May-12 06:33N 52°28' E 004°38'5 5.0
2016-May-12 05:34N 52°25' E 004°45'0 0.0
2016-May-12 04:33N 52°25' E 004°45'0 0.0
2016-May-12 02:33N 52°25' E 004°45'0 0.0
2016-May-12 00:03N 52°25' E 004°45'0 0.0
2016-May-11 23:21N 52°25' E 004°45'0 0.0
2016-May-11 22:21N 52°25' E 004°45'0 0.0
2016-May-11 20:09N 52°25' E 004°45'0 0.0
2016-May-11 19:30N 52°25' E 004°45'0 0.0
2016-May-11 18:27N 52°25' E 004°45'0 0.0
2016-May-11 17:06N 52°25' E 004°45'0 0.0
2016-May-11 15:33N 52°25' E 004°45'0 0.0
2016-May-11 13:15N 52°25' E 004°45'0 0.0
2016-May-11 12:30N 52°25' E 004°45'0 0.0
2016-May-11 10:30N 52°25' E 004°45'0 0.0
2016-May-11 09:27N 52°25' E 004°45'0 0.0
2016-May-11 08:21N 52°25' E 004°45'0 0.0
2016-May-11 05:27N 52°25' E 004°45'0 0.0
2016-May-11 04:27N 52°25' E 004°45'0 0.0
2016-May-11 02:30N 52°25' E 004°45'0 0.0
2016-May-11 01:30N 52°25' E 004°45'0 0.0
2016-May-11 00:30N 52°25' E 004°45'0 0.0
2016-May-10 23:27N 52°25' E 004°45'0 0.0
2016-May-10 22:27N 52°25' E 004°45'0 0.0
2016-May-10 21:33N 52°25' E 004°45'0 0.0
2016-May-10 20:33N 52°25' E 004°45'0 0.0
2016-May-10 19:30N 52°25' E 004°45'0 0.0
2016-May-10 18:33N 52°25' E 004°45'0 0.0
2016-May-10 17:33N 52°25' E 004°45'0 0.0
2016-May-10 16:33N 52°25' E 004°45'0 0.0
2016-May-10 15:27N 52°25' E 004°45'  
Track history (hours):
 
Tides and Currents Weather Stations Pressure Air Temp Water Temp Dewpoint Dewpoint Depression Visibility Wind Speed Wind Dir Waves Ship Positions

Fair Seas

Last reported at 2016-May-20 14:33 UTC. Time now 2016-Jun-01 07:28 UTC.
Position N 35°23' E 015°02'.
Warning: this ship's position is 11 days out of date.

Length 250 m; draft 13.6 m.

Type: Tanker. MMSI: 538003211.

Date/timePositionNaut miles runAvg speedWind from/ knotsBaromVisibWave heightAir tempDewpointWater temp
2016-May-20 14:33N 35°23' E 015°02'2611.7
2016-May-20 12:19N 35°30' E 014°31'912.1
2016-May-20 11:33N 35°35' E 014°22'1312.3
2016-May-20 10:32N 35°42' E 014°09'2512.5
2016-May-20 08:33N 35°57' E 013°45'1412.4
2016-May-20 07:24N 36°06' E 013°30'3712.4
2016-May-20 04:27N 36°28' E 012°54'1313.2
2016-May-20 03:30N 36°35' E 012°42'1313.4
2016-May-20 02:33N 36°43' E 012°29'55012.4
2016-May-18 06:16N 36°55' E 001°01'7911.6
2016-May-17 23:28N 36°38' W 000°35'1111.9
2016-May-17 22:33N 36°36' W 000°48'2411.9
2016-May-17 20:33N 36°31' W 001°17'1212.3
2016-May-17 19:33N 36°28' W 001°32'1712.5
2016-May-17 18:13N 36°25' W 001°52'812.4
2016-May-17 17:33N 36°23' W 002°02'1511.7
2016-May-17 16:15N 36°21' W 002°21'14212.2
2016-May-17 04:33N 36°01' W 005°15'11412.3
2016-May-16 19:21N 36°06' W 007°35'1012.5
2016-May-16 18:33N 36°08' W 007°47'1312.7
2016-May-16 17:33N 36°12' W 008°02'1312.7
2016-May-16 16:32N 36°15' W 008°18'1212.5
2016-May-16 15:33N 36°19' W 008°32'4112.3
2016-May-16 12:11N 36°32' W 009°21'812.1
2016-May-16 11:33N 36°37' W 009°29'2512.4
2016-May-16 09:30N 36°60' W 009°42'1212.7
2016-May-16 08:33N 37°11' W 009°46'1512.5
2016-May-16 07:22N 37°26' W 009°50'1012.3
2016-May-16 06:33N 37°36' W 009°53'1212.2
2016-May-16 05:32N 37°48' W 009°56'1412.2
2016-May-16 04:22N 38°02' W 010°00'1012.5
2016-May-16 03:32N 38°12' W 010°03'1412.7
2016-May-16 02:27N 38°25' W 010°07'1212.6
2016-May-16 01:29N 38°37' W 010°11'  
2016-May-13 20:22N 49°02' W 005°25'7512.6
2016-May-13 14:28N 49°43' W 003°49'1112.3
2016-May-13 13:33N 49°48' W 003°34'1211.9
2016-May-13 12:33N 49°54' W 003°19'1211.5
2016-May-13 11:33N 49°58' W 003°02'1211.6
2016-May-13 10:32N 50°01' W 002°44'9613.7
2016-May-13 03:33N 50°26' W 000°19'1211.8
2016-May-13 02:33N 50°30' W 000°02'1110.9
2016-May-13 01:33N 50°32' E 000°15'1110.8
2016-May-13 00:33N 50°35' E 000°31'2512.3
2016-May-12 22:33N 50°48' E 001°05'1313.6
2016-May-12 21:34N 50°57' E 001°21'1312.9
2016-May-12 20:33N 51°06' E 001°35'1211.6
2016-May-12 19:33N 51°15' E 001°47'1110.8
2016-May-12 18:33N 51°25' E 001°55'1110.6
2016-May-12 17:33N 51°33' E 002°06'1110.9
2016-May-12 16:33N 51°41' E 002°18'1211.6
2016-May-12 15:33N 51°49' E 002°30'1312.8
2016-May-12 14:33N 51°59' E 002°43'1413.5
2016-May-12 13:33N 52°10' E 002°57'1413.8
2016-May-12 12:33N 52°21' E 003°10'1512.2
2016-May-12 11:18N 52°28' E 003°33'1012.6
2016-May-12 10:31N 52°30' E 003°49'1111.7
2016-May-12 09:33N 52°30' E 004°07'1111.1
2016-May-12 08:33N 52°29' E 004°25'7 7.1
2016-May-12 07:34N 52°28' E 004°37'1 1.1
2016-May-12 06:33N 52°28' E 004°38'5 5.0
2016-May-12 05:34N 52°25' E 004°45'0 0.0
2016-May-12 04:33N 52°25' E 004°45'0 0.0
2016-May-12 02:33N 52°25' E 004°45'0 0.0
2016-May-12 00:03N 52°25' E 004°45'0 0.0
2016-May-11 23:21N 52°25' E 004°45'0 0.0
2016-May-11 22:21N 52°25' E 004°45'0 0.0
2016-May-11 20:09N 52°25' E 004°45'0 0.0
2016-May-11 19:30N 52°25' E 004°45'0 0.0
2016-May-11 18:27N 52°25' E 004°45'0 0.0
2016-May-11 17:06N 52°25' E 004°45'0 0.0
2016-May-11 15:33N 52°25' E 004°45'0 0.0
2016-May-11 13:15N 52°25' E 004°45'0 0.0
2016-May-11 12:30N 52°25' E 004°45'0 0.0
2016-May-11 10:30N 52°25' E 004°45'0 0.0
2016-May-11 09:27N 52°25' E 004°45'0 0.0
2016-May-11 08:21N 52°25' E 004°45'0 0.0
2016-May-11 05:27N 52°25' E 004°45'0 0.0
2016-May-11 04:27N 52°25' E 004°45'0 0.0
2016-May-11 02:30N 52°25' E 004°45'0 0.0
2016-May-11 01:30N 52°25' E 004°45'0 0.0
2016-May-11 00:30N 52°25' E 004°45'0 0.0
2016-May-10 23:27N 52°25' E 004°45'0 0.0
2016-May-10 22:27N 52°25' E 004°45'0 0.0
2016-May-10 21:33N 52°25' E 004°45'0 0.0
2016-May-10 20:33N 52°25' E 004°45'0 0.0
2016-May-10 19:30N 52°25' E 004°45'0 0.0
2016-May-10 18:33N 52°25' E 004°45'0 0.0
2016-May-10 17:33N 52°25' E 004°45'0 0.0
2016-May-10 16:33N 52°25' E 004°45'0 0.0
2016-May-10 15:27N 52°25' E 004°45'  

Dump ship's entire track history